sensor_id;sensor_type;location;lat;lon;timestamp;P1;durP1;ratioP1;P2;durP2;ratioP2
53287;SDS011;39172;45.550;12.072;2023-04-29T00:02:20;5.32;;;4.82;;
53287;SDS011;39172;45.550;12.072;2023-04-29T00:08:20;5.15;;;4.65;;
53287;SDS011;39172;45.550;12.072;2023-04-29T00:14:22;5.72;;;5.13;;
53287;SDS011;39172;45.550;12.072;2023-04-29T00:20:24;4.40;;;3.40;;
53287;SDS011;39172;45.550;12.072;2023-04-29T00:26:25;6.30;;;5.70;;
53287;SDS011;39172;45.550;12.072;2023-04-29T00:32:26;5.57;;;4.95;;
53287;SDS011;39172;45.550;12.072;2023-04-29T00:38:27;6.35;;;5.72;;
53287;SDS011;39172;45.550;12.072;2023-04-29T00:44:28;6.25;;;5.63;;
53287;SDS011;39172;45.550;12.072;2023-04-29T00:50:29;6.78;;;5.95;;
53287;SDS011;39172;45.550;12.072;2023-04-29T00:56:30;3.80;;;3.40;;
53287;SDS011;39172;45.550;12.072;2023-04-29T01:02:31;6.78;;;5.95;;
53287;SDS011;39172;45.550;12.072;2023-04-29T01:08:36;6.00;;;5.40;;
53287;SDS011;39172;45.550;12.072;2023-04-29T01:14:53;5.97;;;5.38;;
53287;SDS011;39172;45.550;12.072;2023-04-29T01:20:55;6.30;;;5.65;;
53287;SDS011;39172;45.550;12.072;2023-04-29T01:26:58;8.38;;;7.47;;
53287;SDS011;39172;45.550;12.072;2023-04-29T01:45:40;11.60;;;10.40;;
53287;SDS011;39172;45.550;12.072;2023-04-29T01:51:42;12.00;;;10.80;;
53287;SDS011;39172;45.550;12.072;2023-04-29T01:57:42;11.27;;;10.07;;
53287;SDS011;39172;45.550;12.072;2023-04-29T02:04:19;9.35;;;8.45;;
53287;SDS011;39172;45.550;12.072;2023-04-29T02:10:20;9.45;;;8.35;;
53287;SDS011;39172;45.550;12.072;2023-04-29T02:16:24;7.47;;;6.68;;
53287;SDS011;39172;45.550;12.072;2023-04-29T02:22:34;7.57;;;6.80;;
53287;SDS011;39172;45.550;12.072;2023-04-29T02:28:35;7.25;;;6.55;;
53287;SDS011;39172;45.550;12.072;2023-04-29T02:34:38;4.43;;;4.03;;
53287;SDS011;39172;45.550;12.072;2023-04-29T02:40:42;4.32;;;3.65;;
53287;SDS011;39172;45.550;12.072;2023-04-29T02:46:44;5.80;;;4.90;;
53287;SDS011;39172;45.550;12.072;2023-04-29T02:52:45;6.00;;;5.35;;
53287;SDS011;39172;45.550;12.072;2023-04-29T02:58:46;8.38;;;7.03;;
53287;SDS011;39172;45.550;12.072;2023-04-29T03:04:47;6.35;;;5.60;;
53287;SDS011;39172;45.550;12.072;2023-04-29T03:10:48;9.52;;;8.35;;
53287;SDS011;39172;45.550;12.072;2023-04-29T03:16:49;7.97;;;7.00;;
53287;SDS011;39172;45.550;12.072;2023-04-29T03:22:50;6.97;;;5.88;;
53287;SDS011;39172;45.550;12.072;2023-04-29T03:28:51;7.18;;;6.03;;
53287;SDS011;39172;45.550;12.072;2023-04-29T03:34:52;6.90;;;5.60;;
53287;SDS011;39172;45.550;12.072;2023-04-29T03:41:02;6.78;;;5.68;;
53287;SDS011;39172;45.550;12.072;2023-04-29T03:47:05;5.45;;;4.95;;
53287;SDS011;39172;45.550;12.072;2023-04-29T03:53:06;3.90;;;3.40;;
53287;SDS011;39172;45.550;12.072;2023-04-29T03:59:08;6.82;;;6.13;;
53287;SDS011;39172;45.550;12.072;2023-04-29T04:05:10;5.35;;;4.85;;
53287;SDS011;39172;45.550;12.072;2023-04-29T04:11:13;4.05;;;3.65;;
53287;SDS011;39172;45.550;12.072;2023-04-29T04:17:43;5.45;;;4.90;;
53287;SDS011;39172;45.550;12.072;2023-04-29T04:23:44;4.10;;;3.22;;
53287;SDS011;39172;45.550;12.072;2023-04-29T04:29:52;5.45;;;4.82;;
53287;SDS011;39172;45.550;12.072;2023-04-29T04:35:59;3.67;;;3.28;;
53287;SDS011;39172;45.550;12.072;2023-04-29T04:42:00;4.68;;;4.15;;
53287;SDS011;39172;45.550;12.072;2023-04-29T04:48:05;7.13;;;5.38;;
53287;SDS011;39172;45.550;12.072;2023-04-29T04:54:08;6.55;;;5.60;;
53287;SDS011;39172;45.550;12.072;2023-04-29T05:00:09;6.32;;;4.97;;
53287;SDS011;39172;45.550;12.072;2023-04-29T05:06:10;3.95;;;3.53;;
53287;SDS011;39172;45.550;12.072;2023-04-29T05:12:13;5.25;;;4.60;;
53287;SDS011;39172;45.550;12.072;2023-04-29T05:18:14;6.55;;;5.72;;
53287;SDS011;39172;45.550;12.072;2023-04-29T05:24:17;4.82;;;4.25;;
53287;SDS011;39172;45.550;12.072;2023-04-29T05:30:19;5.18;;;3.60;;
53287;SDS011;39172;45.550;12.072;2023-04-29T05:36:20;4.47;;;4.07;;
53287;SDS011;39172;45.550;12.072;2023-04-29T05:42:22;4.57;;;4.18;;
53287;SDS011;39172;45.550;12.072;2023-04-29T05:48:24;3.50;;;3.20;;
53287;SDS011;39172;45.550;12.072;2023-04-29T05:54:25;3.67;;;2.92;;
53287;SDS011;39172;45.550;12.072;2023-04-29T06:00:26;4.07;;;3.60;;
53287;SDS011;39172;45.550;12.072;2023-04-29T06:06:34;3.17;;;2.85;;
53287;SDS011;39172;45.550;12.072;2023-04-29T06:12:40;3.65;;;2.63;;
53287;SDS011;39172;45.550;12.072;2023-04-29T06:18:41;4.22;;;3.53;;
53287;SDS011;39172;45.550;12.072;2023-04-29T06:24:42;3.97;;;3.58;;
53287;SDS011;39172;45.550;12.072;2023-04-29T06:30:45;3.30;;;2.72;;
53287;SDS011;39172;45.550;12.072;2023-04-29T06:36:47;3.63;;;3.08;;
53287;SDS011;39172;45.550;12.072;2023-04-29T06:43:03;4.35;;;3.65;;
53287;SDS011;39172;45.550;12.072;2023-04-29T06:49:18;4.78;;;4.22;;
53287;SDS011;39172;45.550;12.072;2023-04-29T06:55:19;5.43;;;4.50;;
53287;SDS011;39172;45.550;12.072;2023-04-29T07:01:21;4.43;;;3.83;;
53287;SDS011;39172;45.550;12.072;2023-04-29T07:07:22;5.18;;;4.38;;
53287;SDS011;39172;45.550;12.072;2023-04-29T07:13:24;5.82;;;4.97;;
53287;SDS011;39172;45.550;12.072;2023-04-29T07:19:25;5.05;;;4.00;;
53287;SDS011;39172;45.550;12.072;2023-04-29T07:25:26;5.50;;;4.20;;
53287;SDS011;39172;45.550;12.072;2023-04-29T07:31:30;4.90;;;4.00;;
53287;SDS011;39172;45.550;12.072;2023-04-29T07:37:30;5.88;;;4.20;;
53287;SDS011;39172;45.550;12.072;2023-04-29T07:43:31;4.45;;;3.92;;
53287;SDS011;39172;45.550;12.072;2023-04-29T07:49:33;5.97;;;4.30;;
53287;SDS011;39172;45.550;12.072;2023-04-29T07:55:38;5.32;;;4.07;;
53287;SDS011;39172;45.550;12.072;2023-04-29T08:01:40;8.07;;;5.50;;
53287;SDS011;39172;45.550;12.072;2023-04-29T08:07:41;4.47;;;3.90;;
53287;SDS011;39172;45.550;12.072;2023-04-29T08:13:42;5.60;;;4.13;;
53287;SDS011;39172;45.550;12.072;2023-04-29T08:19:43;4.55;;;3.60;;
53287;SDS011;39172;45.550;12.072;2023-04-29T08:25:44;3.60;;;3.30;;
53287;SDS011;39172;45.550;12.072;2023-04-29T08:31:45;3.50;;;2.95;;
53287;SDS011;39172;45.550;12.072;2023-04-29T08:37:46;3.92;;;3.15;;
53287;SDS011;39172;45.550;12.072;2023-04-29T08:43:47;3.30;;;2.72;;
53287;SDS011;39172;45.550;12.072;2023-04-29T08:49:48;2.78;;;2.50;;
53287;SDS011;39172;45.550;12.072;2023-04-29T08:55:49;3.35;;;2.80;;
53287;SDS011;39172;45.550;12.072;2023-04-29T09:01:50;4.55;;;3.30;;
53287;SDS011;39172;45.550;12.072;2023-04-29T09:07:53;4.07;;;3.10;;
53287;SDS011;39172;45.550;12.072;2023-04-29T09:13:59;5.40;;;2.90;;
53287;SDS011;39172;45.550;12.072;2023-04-29T09:26:19;5.28;;;4.07;;
53287;SDS011;39172;45.550;12.072;2023-04-29T09:32:20;5.72;;;3.70;;
53287;SDS011;39172;45.550;12.072;2023-04-29T09:38:21;3.90;;;3.50;;
53287;SDS011;39172;45.550;12.072;2023-04-29T09:44:23;4.03;;;3.13;;
53287;SDS011;39172;45.550;12.072;2023-04-29T09:50:25;4.15;;;3.03;;
53287;SDS011;39172;45.550;12.072;2023-04-29T09:56:26;4.30;;;3.42;;
53287;SDS011;39172;45.550;12.072;2023-04-29T10:02:30;3.65;;;2.85;;
53287;SDS011;39172;45.550;12.072;2023-04-29T10:08:32;3.38;;;3.05;;
53287;SDS011;39172;45.550;12.072;2023-04-29T10:14:37;3.00;;;2.60;;
53287;SDS011;39172;45.550;12.072;2023-04-29T10:20:40;2.58;;;2.20;;
53287;SDS011;39172;45.550;12.072;2023-04-29T10:26:41;3.10;;;2.58;;
53287;SDS011;39172;45.550;12.072;2023-04-29T10:32:43;2.38;;;2.10;;
53287;SDS011;39172;45.550;12.072;2023-04-29T10:38:48;2.63;;;2.28;;
53287;SDS011;39172;45.550;12.072;2023-04-29T10:51:11;3.65;;;3.25;;
53287;SDS011;39172;45.550;12.072;2023-04-29T10:57:19;2.70;;;2.38;;
53287;SDS011;39172;45.550;12.072;2023-04-29T11:09:41;3.65;;;3.30;;
53287;SDS011;39172;45.550;12.072;2023-04-29T11:15:42;3.15;;;2.85;;
53287;SDS011;39172;45.550;12.072;2023-04-29T11:21:43;4.05;;;3.00;;
53287;SDS011;39172;45.550;12.072;2023-04-29T11:27:44;3.22;;;2.47;;
53287;SDS011;39172;45.550;12.072;2023-04-29T11:33:48;4.82;;;3.47;;
53287;SDS011;39172;45.550;12.072;2023-04-29T11:39:49;4.88;;;3.55;;
53287;SDS011;39172;45.550;12.072;2023-04-29T11:45:51;4.47;;;3.15;;
53287;SDS011;39172;45.550;12.072;2023-04-29T11:51:52;3.28;;;2.65;;
53287;SDS011;39172;45.550;12.072;2023-04-29T11:57:53;4.10;;;2.90;;
53287;SDS011;39172;45.550;12.072;2023-04-29T12:03:57;3.15;;;2.80;;
53287;SDS011;39172;45.550;12.072;2023-04-29T12:10:02;2.80;;;2.47;;
53287;SDS011;39172;45.550;12.072;2023-04-29T12:16:03;5.57;;;4.53;;
53287;SDS011;39172;45.550;12.072;2023-04-29T12:22:05;4.35;;;3.58;;
53287;SDS011;39172;45.550;12.072;2023-04-29T12:28:12;4.25;;;2.90;;
53287;SDS011;39172;45.550;12.072;2023-04-29T12:34:13;3.55;;;3.00;;
53287;SDS011;39172;45.550;12.072;2023-04-29T12:40:14;4.18;;;3.42;;
53287;SDS011;39172;45.550;12.072;2023-04-29T12:46:16;3.67;;;3.08;;
53287;SDS011;39172;45.550;12.072;2023-04-29T12:52:17;3.67;;;2.97;;
53287;SDS011;39172;45.550;12.072;2023-04-29T12:58:18;4.35;;;3.08;;
53287;SDS011;39172;45.550;12.072;2023-04-29T13:04:19;4.85;;;4.07;;
53287;SDS011;39172;45.550;12.072;2023-04-29T13:10:20;4.35;;;3.13;;
53287;SDS011;39172;45.550;12.072;2023-04-29T13:16:21;5.20;;;3.55;;
53287;SDS011;39172;45.550;12.072;2023-04-29T13:22:24;3.88;;;3.10;;
53287;SDS011;39172;45.550;12.072;2023-04-29T13:28:25;4.72;;;3.60;;
53287;SDS011;39172;45.550;12.072;2023-04-29T13:34:26;3.42;;;3.08;;
53287;SDS011;39172;45.550;12.072;2023-04-29T13:40:27;4.85;;;3.70;;
53287;SDS011;39172;45.550;12.072;2023-04-29T13:46:28;6.15;;;4.40;;
53287;SDS011;39172;45.550;12.072;2023-04-29T13:52:29;3.20;;;2.70;;
53287;SDS011;39172;45.550;12.072;2023-04-29T13:58:30;4.72;;;3.17;;
53287;SDS011;39172;45.550;12.072;2023-04-29T14:04:31;4.20;;;3.28;;
53287;SDS011;39172;45.550;12.072;2023-04-29T14:10:32;5.20;;;3.97;;
53287;SDS011;39172;45.550;12.072;2023-04-29T14:16:33;4.85;;;3.83;;
53287;SDS011;39172;45.550;12.072;2023-04-29T14:22:34;5.38;;;3.78;;
53287;SDS011;39172;45.550;12.072;2023-04-29T14:28:35;5.90;;;3.50;;
53287;SDS011;39172;45.550;12.072;2023-04-29T14:34:36;5.97;;;4.03;;
53287;SDS011;39172;45.550;12.072;2023-04-29T14:40:37;5.35;;;4.13;;
53287;SDS011;39172;45.550;12.072;2023-04-29T14:46:38;3.55;;;3.25;;
53287;SDS011;39172;45.550;12.072;2023-04-29T14:52:39;3.47;;;2.83;;
53287;SDS011;39172;45.550;12.072;2023-04-29T14:58:40;8.85;;;5.95;;
53287;SDS011;39172;45.550;12.072;2023-04-29T15:04:41;7.97;;;4.60;;
53287;SDS011;39172;45.550;12.072;2023-04-29T15:10:45;6.03;;;4.53;;
53287;SDS011;39172;45.550;12.072;2023-04-29T15:16:46;7.10;;;5.75;;
53287;SDS011;39172;45.550;12.072;2023-04-29T15:22:48;8.00;;;6.07;;
53287;SDS011;39172;45.550;12.072;2023-04-29T15:28:49;7.50;;;5.40;;
53287;SDS011;39172;45.550;12.072;2023-04-29T15:34:50;7.88;;;4.80;;
53287;SDS011;39172;45.550;12.072;2023-04-29T15:40:51;7.22;;;4.72;;
53287;SDS011;39172;45.550;12.072;2023-04-29T15:46:58;6.93;;;4.88;;
53287;SDS011;39172;45.550;12.072;2023-04-29T15:52:59;6.55;;;4.68;;
53287;SDS011;39172;45.550;12.072;2023-04-29T15:59:00;6.63;;;4.38;;
53287;SDS011;39172;45.550;12.072;2023-04-29T16:05:01;4.95;;;4.15;;
53287;SDS011;39172;45.550;12.072;2023-04-29T16:11:02;5.60;;;4.40;;
53287;SDS011;39172;45.550;12.072;2023-04-29T16:17:03;7.15;;;4.95;;
53287;SDS011;39172;45.550;12.072;2023-04-29T16:23:04;4.38;;;3.50;;
53287;SDS011;39172;45.550;12.072;2023-04-29T16:29:05;4.20;;;3.80;;
53287;SDS011;39172;45.550;12.072;2023-04-29T16:35:06;5.30;;;3.90;;
53287;SDS011;39172;45.550;12.072;2023-04-29T16:41:07;3.50;;;2.85;;
53287;SDS011;39172;45.550;12.072;2023-04-29T16:47:08;3.38;;;2.67;;
53287;SDS011;39172;45.550;12.072;2023-04-29T16:53:09;3.30;;;2.65;;
53287;SDS011;39172;45.550;12.072;2023-04-29T16:59:10;2.85;;;2.50;;
53287;SDS011;39172;45.550;12.072;2023-04-29T17:05:12;2.80;;;2.50;;
53287;SDS011;39172;45.550;12.072;2023-04-29T17:11:13;2.90;;;2.40;;
53287;SDS011;39172;45.550;12.072;2023-04-29T17:17:14;2.72;;;2.30;;
53287;SDS011;39172;45.550;12.072;2023-04-29T17:23:15;2.80;;;2.10;;
53287;SDS011;39172;45.550;12.072;2023-04-29T17:29:15;2.50;;;2.30;;
53287;SDS011;39172;45.550;12.072;2023-04-29T17:35:16;2.75;;;2.25;;
53287;SDS011;39172;45.550;12.072;2023-04-29T17:41:17;2.90;;;2.30;;
53287;SDS011;39172;45.550;12.072;2023-04-29T17:47:18;2.60;;;2.00;;
53287;SDS011;39172;45.550;12.072;2023-04-29T17:53:20;3.40;;;2.47;;
53287;SDS011;39172;45.550;12.072;2023-04-29T17:59:21;2.60;;;2.30;;
53287;SDS011;39172;45.550;12.072;2023-04-29T18:05:22;3.25;;;2.65;;
53287;SDS011;39172;45.550;12.072;2023-04-29T18:11:23;3.83;;;3.22;;
53287;SDS011;39172;45.550;12.072;2023-04-29T18:17:24;5.78;;;3.70;;
53287;SDS011;39172;45.550;12.072;2023-04-29T18:23:26;3.55;;;3.25;;
53287;SDS011;39172;45.550;12.072;2023-04-29T18:29:27;3.55;;;3.17;;
53287;SDS011;39172;45.550;12.072;2023-04-29T18:35:28;3.38;;;2.95;;
53287;SDS011;39172;45.550;12.072;2023-04-29T18:41:29;3.13;;;2.80;;
53287;SDS011;39172;45.550;12.072;2023-04-29T18:47:30;4.00;;;3.20;;
53287;SDS011;39172;45.550;12.072;2023-04-29T18:53:31;3.70;;;3.22;;
53287;SDS011;39172;45.550;12.072;2023-04-29T18:59:32;4.80;;;4.03;;
53287;SDS011;39172;45.550;12.072;2023-04-29T19:05:35;4.93;;;3.80;;
53287;SDS011;39172;45.550;12.072;2023-04-29T19:11:36;5.00;;;4.15;;
53287;SDS011;39172;45.550;12.072;2023-04-29T19:17:37;5.55;;;4.70;;
53287;SDS011;39172;45.550;12.072;2023-04-29T19:23:39;5.45;;;4.25;;
53287;SDS011;39172;45.550;12.072;2023-04-29T19:29:40;4.68;;;3.78;;
53287;SDS011;39172;45.550;12.072;2023-04-29T19:35:41;3.80;;;3.25;;
53287;SDS011;39172;45.550;12.072;2023-04-29T19:41:42;3.28;;;2.97;;
53287;SDS011;39172;45.550;12.072;2023-04-29T19:47:43;3.17;;;2.67;;
53287;SDS011;39172;45.550;12.072;2023-04-29T19:53:44;3.47;;;2.90;;
53287;SDS011;39172;45.550;12.072;2023-04-29T19:59:45;3.45;;;2.63;;
53287;SDS011;39172;45.550;12.072;2023-04-29T20:05:45;2.53;;;2.10;;
53287;SDS011;39172;45.550;12.072;2023-04-29T20:11:47;3.70;;;2.63;;
53287;SDS011;39172;45.550;12.072;2023-04-29T20:17:48;2.65;;;2.42;;
53287;SDS011;39172;45.550;12.072;2023-04-29T20:23:49;5.15;;;4.05;;
53287;SDS011;39172;45.550;12.072;2023-04-29T20:29:49;3.38;;;2.92;;
53287;SDS011;39172;45.550;12.072;2023-04-29T20:35:50;3.55;;;3.03;;
53287;SDS011;39172;45.550;12.072;2023-04-29T20:41:52;6.10;;;5.30;;
53287;SDS011;39172;45.550;12.072;2023-04-29T20:47:55;4.15;;;3.58;;
53287;SDS011;39172;45.550;12.072;2023-04-29T20:53:56;6.47;;;5.68;;
53287;SDS011;39172;45.550;12.072;2023-04-29T20:59:57;6.90;;;5.30;;
53287;SDS011;39172;45.550;12.072;2023-04-29T21:05:58;6.25;;;5.65;;
53287;SDS011;39172;45.550;12.072;2023-04-29T21:11:59;6.82;;;5.05;;
53287;SDS011;39172;45.550;12.072;2023-04-29T21:18:00;4.05;;;3.45;;
53287;SDS011;39172;45.550;12.072;2023-04-29T21:24:01;8.20;;;7.07;;
53287;SDS011;39172;45.550;12.072;2023-04-29T21:30:02;8.05;;;5.93;;
53287;SDS011;39172;45.550;12.072;2023-04-29T21:36:04;9.15;;;7.18;;
53287;SDS011;39172;45.550;12.072;2023-04-29T21:42:05;7.65;;;6.45;;
53287;SDS011;39172;45.550;12.072;2023-04-29T21:48:16;4.30;;;3.90;;
53287;SDS011;39172;45.550;12.072;2023-04-29T21:54:18;5.50;;;4.53;;
53287;SDS011;39172;45.550;12.072;2023-04-29T22:00:19;3.95;;;3.53;;
53287;SDS011;39172;45.550;12.072;2023-04-29T22:06:28;4.18;;;3.40;;
53287;SDS011;39172;45.550;12.072;2023-04-29T22:12:29;4.82;;;4.30;;
53287;SDS011;39172;45.550;12.072;2023-04-29T22:18:29;4.53;;;3.90;;
53287;SDS011;39172;45.550;12.072;2023-04-29T22:24:30;5.10;;;4.45;;
53287;SDS011;39172;45.550;12.072;2023-04-29T22:30:31;3.95;;;3.05;;
53287;SDS011;39172;45.550;12.072;2023-04-29T22:36:32;4.07;;;3.25;;
53287;SDS011;39172;45.550;12.072;2023-04-29T22:42:33;4.85;;;4.07;;
53287;SDS011;39172;45.550;12.072;2023-04-29T22:48:34;5.78;;;4.63;;
53287;SDS011;39172;45.550;12.072;2023-04-29T22:54:35;5.88;;;4.70;;
53287;SDS011;39172;45.550;12.072;2023-04-29T23:00:36;5.22;;;4.22;;
53287;SDS011;39172;45.550;12.072;2023-04-29T23:06:37;4.63;;;3.63;;
53287;SDS011;39172;45.550;12.072;2023-04-29T23:12:38;3.28;;;2.97;;
53287;SDS011;39172;45.550;12.072;2023-04-29T23:18:38;4.50;;;4.10;;
53287;SDS011;39172;45.550;12.072;2023-04-29T23:24:39;6.03;;;5.43;;
53287;SDS011;39172;45.550;12.072;2023-04-29T23:30:40;3.30;;;3.00;;
53287;SDS011;39172;45.550;12.072;2023-04-29T23:36:41;4.28;;;3.88;;
53287;SDS011;39172;45.550;12.072;2023-04-29T23:42:45;3.40;;;3.03;;
53287;SDS011;39172;45.550;12.072;2023-04-29T23:48:46;3.00;;;2.70;;
53287;SDS011;39172;45.550;12.072;2023-04-29T23:54:47;4.22;;;3.83;;
